sensor_id;sensor_type;location;lat;lon;timestamp;P1;durP1;ratioP1;P2;durP2;ratioP2
40793;SDS011;26502;51.886;15.604;2024-01-30T00:04:31;22.00;;;11.30;;
40793;SDS011;26502;51.886;15.604;2024-01-30T00:09:57;21.80;;;11.40;;
40793;SDS011;26502;51.886;15.604;2024-01-30T00:15:25;23.80;;;13.00;;
40793;SDS011;26502;51.886;15.604;2024-01-30T00:20:52;25.60;;;12.90;;
40793;SDS011;26502;51.886;15.604;2024-01-30T00:26:18;28.80;;;14.40;;
40793;SDS011;26502;51.886;15.604;2024-01-30T00:31:44;47.60;;;23.30;;
40793;SDS011;26502;51.886;15.604;2024-01-30T00:37:10;52.80;;;25.50;;
40793;SDS011;26502;51.886;15.604;2024-01-30T00:42:36;49.60;;;23.10;;
40793;SDS011;26502;51.886;15.604;2024-01-30T00:48:02;41.00;;;20.80;;
40793;SDS011;26502;51.886;15.604;2024-01-30T00:53:30;45.80;;;21.60;;
40793;SDS011;26502;51.886;15.604;2024-01-30T00:58:56;50.70;;;23.80;;
40793;SDS011;26502;51.886;15.604;2024-01-30T01:04:23;48.70;;;22.50;;
40793;SDS011;26502;51.886;15.604;2024-01-30T01:09:49;61.40;;;26.90;;
40793;SDS011;26502;51.886;15.604;2024-01-30T01:15:15;48.00;;;21.70;;
40793;SDS011;26502;51.886;15.604;2024-01-30T01:20:41;43.90;;;22.80;;
40793;SDS011;26502;51.886;15.604;2024-01-30T01:26:09;51.00;;;23.40;;
40793;SDS011;26502;51.886;15.604;2024-01-30T01:31:34;51.20;;;24.30;;
40793;SDS011;26502;51.886;15.604;2024-01-30T01:37:06;42.40;;;21.70;;
40793;SDS011;26502;51.886;15.604;2024-01-30T01:42:32;39.70;;;19.20;;
40793;SDS011;26502;51.886;15.604;2024-01-30T01:47:58;25.40;;;14.20;;
40793;SDS011;26502;51.886;15.604;2024-01-30T01:53:24;25.30;;;13.70;;
40793;SDS011;26502;51.886;15.604;2024-01-30T01:58:51;25.60;;;12.70;;
40793;SDS011;26502;51.886;15.604;2024-01-30T02:04:19;24.30;;;12.80;;
40793;SDS011;26502;51.886;15.604;2024-01-30T02:09:45;23.50;;;12.50;;
40793;SDS011;26502;51.886;15.604;2024-01-30T02:15:14;23.70;;;13.20;;
40793;SDS011;26502;51.886;15.604;2024-01-30T02:20:40;25.10;;;13.00;;
40793;SDS011;26502;51.886;15.604;2024-01-30T02:26:06;20.80;;;11.90;;
40793;SDS011;26502;51.886;15.604;2024-01-30T02:31:32;22.90;;;13.60;;
40793;SDS011;26502;51.886;15.604;2024-01-30T02:36:58;24.70;;;13.80;;
40793;SDS011;26502;51.886;15.604;2024-01-30T02:42:24;25.10;;;12.80;;
40793;SDS011;26502;51.886;15.604;2024-01-30T02:47:50;23.00;;;12.50;;
40793;SDS011;26502;51.886;15.604;2024-01-30T02:53:16;20.40;;;12.00;;
40793;SDS011;26502;51.886;15.604;2024-01-30T02:58:42;25.10;;;12.00;;
40793;SDS011;26502;51.886;15.604;2024-01-30T03:04:08;20.30;;;10.70;;
40793;SDS011;26502;51.886;15.604;2024-01-30T03:09:37;18.70;;;11.00;;
40793;SDS011;26502;51.886;15.604;2024-01-30T03:15:05;20.50;;;12.00;;
40793;SDS011;26502;51.886;15.604;2024-01-30T03:20:32;21.60;;;11.70;;
40793;SDS011;26502;51.886;15.604;2024-01-30T03:25:58;25.40;;;12.80;;
40793;SDS011;26502;51.886;15.604;2024-01-30T03:31:24;26.50;;;13.00;;
40793;SDS011;26502;51.886;15.604;2024-01-30T03:36:50;33.70;;;15.40;;
40793;SDS011;26502;51.886;15.604;2024-01-30T03:42:16;89.20;;;36.00;;
40793;SDS011;26502;51.886;15.604;2024-01-30T03:47:44;82.80;;;32.30;;
40793;SDS011;26502;51.886;15.604;2024-01-30T03:53:11;62.70;;;26.00;;
40793;SDS011;26502;51.886;15.604;2024-01-30T03:58:38;48.60;;;21.30;;
40793;SDS011;26502;51.886;15.604;2024-01-30T04:04:04;46.00;;;20.60;;
40793;SDS011;26502;51.886;15.604;2024-01-30T04:09:30;42.50;;;19.50;;
40793;SDS011;26502;51.886;15.604;2024-01-30T04:14:56;51.50;;;21.50;;
40793;SDS011;26502;51.886;15.604;2024-01-30T04:20:22;39.70;;;18.00;;
40793;SDS011;26502;51.886;15.604;2024-01-30T04:25:49;36.70;;;16.60;;
40793;SDS011;26502;51.886;15.604;2024-01-30T04:31:15;36.90;;;16.70;;
40793;SDS011;26502;51.886;15.604;2024-01-30T04:36:42;41.80;;;16.80;;
40793;SDS011;26502;51.886;15.604;2024-01-30T04:42:09;40.00;;;18.90;;
40793;SDS011;26502;51.886;15.604;2024-01-30T04:47:35;40.90;;;19.00;;
40793;SDS011;26502;51.886;15.604;2024-01-30T04:53:01;41.60;;;17.70;;
40793;SDS011;26502;51.886;15.604;2024-01-30T04:58:29;42.50;;;18.70;;
40793;SDS011;26502;51.886;15.604;2024-01-30T05:03:55;40.00;;;17.70;;
40793;SDS011;26502;51.886;15.604;2024-01-30T05:09:21;33.50;;;16.40;;
40793;SDS011;26502;51.886;15.604;2024-01-30T05:14:47;32.50;;;15.00;;
40793;SDS011;26502;51.886;15.604;2024-01-30T05:20:13;30.10;;;14.50;;
40793;SDS011;26502;51.886;15.604;2024-01-30T05:25:41;24.70;;;13.50;;
40793;SDS011;26502;51.886;15.604;2024-01-30T05:31:07;28.00;;;13.60;;
40793;SDS011;26502;51.886;15.604;2024-01-30T05:36:33;31.80;;;15.30;;
40793;SDS011;26502;51.886;15.604;2024-01-30T05:41:59;29.70;;;14.50;;
40793;SDS011;26502;51.886;15.604;2024-01-30T05:47:25;25.70;;;13.30;;
40793;SDS011;26502;51.886;15.604;2024-01-30T05:52:51;22.90;;;13.50;;
40793;SDS011;26502;51.886;15.604;2024-01-30T05:58:17;22.20;;;11.70;;
40793;SDS011;26502;51.886;15.604;2024-01-30T06:03:46;22.50;;;11.40;;
40793;SDS011;26502;51.886;15.604;2024-01-30T06:09:12;26.90;;;12.70;;
40793;SDS011;26502;51.886;15.604;2024-01-30T06:14:38;21.00;;;11.60;;
40793;SDS011;26502;51.886;15.604;2024-01-30T06:20:07;23.80;;;11.90;;
40793;SDS011;26502;51.886;15.604;2024-01-30T06:25:33;20.20;;;10.10;;
40793;SDS011;26502;51.886;15.604;2024-01-30T06:30:59;18.30;;;9.70;;
40793;SDS011;26502;51.886;15.604;2024-01-30T06:36:26;17.70;;;10.10;;
40793;SDS011;26502;51.886;15.604;2024-01-30T06:41:52;17.00;;;9.00;;
40793;SDS011;26502;51.886;15.604;2024-01-30T06:47:18;16.10;;;9.10;;
40793;SDS011;26502;51.886;15.604;2024-01-30T06:52:44;16.30;;;9.20;;
40793;SDS011;26502;51.886;15.604;2024-01-30T06:58:11;14.20;;;8.10;;
40793;SDS011;26502;51.886;15.604;2024-01-30T07:03:37;13.90;;;7.60;;
40793;SDS011;26502;51.886;15.604;2024-01-30T07:09:06;17.10;;;8.90;;
40793;SDS011;26502;51.886;15.604;2024-01-30T07:14:33;14.60;;;8.80;;
40793;SDS011;26502;51.886;15.604;2024-01-30T07:19:59;14.30;;;9.20;;
40793;SDS011;26502;51.886;15.604;2024-01-30T07:25:26;14.30;;;7.90;;
40793;SDS011;26502;51.886;15.604;2024-01-30T07:30:52;17.10;;;8.10;;
40793;SDS011;26502;51.886;15.604;2024-01-30T07:36:19;13.90;;;8.40;;
40793;SDS011;26502;51.886;15.604;2024-01-30T07:41:45;15.70;;;8.20;;
40793;SDS011;26502;51.886;15.604;2024-01-30T07:47:11;15.10;;;7.60;;
40793;SDS011;26502;51.886;15.604;2024-01-30T07:52:37;13.60;;;7.80;;
40793;SDS011;26502;51.886;15.604;2024-01-30T07:58:03;13.00;;;7.70;;
40793;SDS011;26502;51.886;15.604;2024-01-30T08:03:29;14.90;;;8.40;;
40793;SDS011;26502;51.886;15.604;2024-01-30T08:08:55;13.50;;;8.80;;
40793;SDS011;26502;51.886;15.604;2024-01-30T08:14:22;14.00;;;7.90;;
40793;SDS011;26502;51.886;15.604;2024-01-30T08:19:49;12.20;;;8.20;;
40793;SDS011;26502;51.886;15.604;2024-01-30T08:25:15;12.20;;;7.70;;
40793;SDS011;26502;51.886;15.604;2024-01-30T08:30:41;11.50;;;7.60;;
40793;SDS011;26502;51.886;15.604;2024-01-30T08:36:08;13.50;;;8.70;;
40793;SDS011;26502;51.886;15.604;2024-01-30T08:41:34;15.50;;;9.60;;
40793;SDS011;26502;51.886;15.604;2024-01-30T08:47:00;20.40;;;12.20;;
40793;SDS011;26502;51.886;15.604;2024-01-30T08:52:27;21.20;;;13.20;;
40793;SDS011;26502;51.886;15.604;2024-01-30T08:57:56;26.70;;;18.40;;
40793;SDS011;26502;51.886;15.604;2024-01-30T09:03:22;38.80;;;22.30;;
40793;SDS011;26502;51.886;15.604;2024-01-30T09:08:49;30.80;;;17.30;;
40793;SDS011;26502;51.886;15.604;2024-01-30T09:14:15;27.80;;;15.30;;
40793;SDS011;26502;51.886;15.604;2024-01-30T09:19:41;26.50;;;13.50;;
40793;SDS011;26502;51.886;15.604;2024-01-30T09:25:08;25.00;;;16.80;;
40793;SDS011;26502;51.886;15.604;2024-01-30T09:30:34;25.90;;;16.30;;
40793;SDS011;26502;51.886;15.604;2024-01-30T09:36:00;25.20;;;16.90;;
40793;SDS011;26502;51.886;15.604;2024-01-30T09:41:26;23.20;;;14.40;;
40793;SDS011;26502;51.886;15.604;2024-01-30T09:46:53;20.70;;;13.40;;
40793;SDS011;26502;51.886;15.604;2024-01-30T09:52:21;20.10;;;12.50;;
40793;SDS011;26502;51.886;15.604;2024-01-30T09:57:47;21.00;;;10.90;;
40793;SDS011;26502;51.886;15.604;2024-01-30T10:03:13;15.60;;;8.70;;
40793;SDS011;26502;51.886;15.604;2024-01-30T10:08:41;15.30;;;9.50;;
40793;SDS011;26502;51.886;15.604;2024-01-30T10:14:07;14.80;;;10.50;;
40793;SDS011;26502;51.886;15.604;2024-01-30T10:19:34;41.80;;;21.00;;
40793;SDS011;26502;51.886;15.604;2024-01-30T10:25:00;38.70;;;22.30;;
40793;SDS011;26502;51.886;15.604;2024-01-30T10:30:26;21.50;;;11.30;;
40793;SDS011;26502;51.886;15.604;2024-01-30T10:35:52;24.80;;;15.10;;
40793;SDS011;26502;51.886;15.604;2024-01-30T10:41:26;10.90;;;6.70;;
40793;SDS011;26502;51.886;15.604;2024-01-30T10:46:56;10.30;;;7.10;;
40793;SDS011;26502;51.886;15.604;2024-01-30T10:52:27;10.90;;;6.80;;
40793;SDS011;26502;51.886;15.604;2024-01-30T10:57:55;13.60;;;8.70;;
40793;SDS011;26502;51.886;15.604;2024-01-30T11:03:22;14.80;;;8.50;;
40793;SDS011;26502;51.886;15.604;2024-01-30T11:08:49;13.50;;;6.90;;
40793;SDS011;26502;51.886;15.604;2024-01-30T11:14:28;11.20;;;7.30;;
40793;SDS011;26502;51.886;15.604;2024-01-30T11:19:55;11.80;;;7.30;;
40793;SDS011;26502;51.886;15.604;2024-01-30T11:25:26;11.90;;;6.50;;
40793;SDS011;26502;51.886;15.604;2024-01-30T11:31:02;16.90;;;9.10;;
40793;SDS011;26502;51.886;15.604;2024-01-30T11:36:29;11.90;;;6.90;;
40793;SDS011;26502;51.886;15.604;2024-01-30T11:42:00;12.80;;;6.90;;
40793;SDS011;26502;51.886;15.604;2024-01-30T11:47:27;12.50;;;6.70;;
40793;SDS011;26502;51.886;15.604;2024-01-30T11:52:55;9.20;;;5.90;;
40793;SDS011;26502;51.886;15.604;2024-01-30T11:58:21;13.40;;;7.40;;
40793;SDS011;26502;51.886;15.604;2024-01-30T12:03:50;11.30;;;7.00;;
40793;SDS011;26502;51.886;15.604;2024-01-30T12:09:17;16.30;;;8.10;;
40793;SDS011;26502;51.886;15.604;2024-01-30T12:14:43;18.10;;;9.00;;
40793;SDS011;26502;51.886;15.604;2024-01-30T12:20:10;12.10;;;6.80;;
40793;SDS011;26502;51.886;15.604;2024-01-30T12:25:39;13.80;;;7.20;;
40793;SDS011;26502;51.886;15.604;2024-01-30T12:31:05;10.80;;;7.20;;
40793;SDS011;26502;51.886;15.604;2024-01-30T12:36:33;9.80;;;6.30;;
40793;SDS011;26502;51.886;15.604;2024-01-30T12:41:59;8.60;;;6.20;;
40793;SDS011;26502;51.886;15.604;2024-01-30T12:47:26;14.40;;;7.10;;
40793;SDS011;26502;51.886;15.604;2024-01-30T12:52:52;10.00;;;7.20;;
40793;SDS011;26502;51.886;15.604;2024-01-30T12:58:20;11.70;;;6.30;;
40793;SDS011;26502;51.886;15.604;2024-01-30T13:03:46;10.40;;;7.10;;
40793;SDS011;26502;51.886;15.604;2024-01-30T13:09:13;10.60;;;7.20;;
40793;SDS011;26502;51.886;15.604;2024-01-30T13:14:39;15.20;;;7.90;;
40793;SDS011;26502;51.886;15.604;2024-01-30T13:20:06;10.50;;;7.00;;
40793;SDS011;26502;51.886;15.604;2024-01-30T13:25:34;9.60;;;5.80;;
40793;SDS011;26502;51.886;15.604;2024-01-30T13:31:00;8.70;;;5.80;;
40793;SDS011;26502;51.886;15.604;2024-01-30T13:36:28;8.90;;;6.70;;
40793;SDS011;26502;51.886;15.604;2024-01-30T13:41:54;13.00;;;7.00;;
40793;SDS011;26502;51.886;15.604;2024-01-30T13:47:20;9.50;;;6.30;;
40793;SDS011;26502;51.886;15.604;2024-01-30T13:52:46;13.20;;;8.40;;
40793;SDS011;26502;51.886;15.604;2024-01-30T13:58:16;12.40;;;7.20;;
40793;SDS011;26502;51.886;15.604;2024-01-30T14:03:42;11.20;;;6.10;;
40793;SDS011;26502;51.886;15.604;2024-01-30T14:09:08;19.90;;;11.00;;
40793;SDS011;26502;51.886;15.604;2024-01-30T14:14:35;13.90;;;7.80;;
40793;SDS011;26502;51.886;15.604;2024-01-30T14:20:00;12.10;;;7.60;;
40793;SDS011;26502;51.886;15.604;2024-01-30T14:25:27;24.40;;;14.80;;
40793;SDS011;26502;51.886;15.604;2024-01-30T14:30:53;15.80;;;9.00;;
40793;SDS011;26502;51.886;15.604;2024-01-30T14:36:19;21.30;;;11.60;;
40793;SDS011;26502;51.886;15.604;2024-01-30T14:41:45;17.20;;;8.70;;
40793;SDS011;26502;51.886;15.604;2024-01-30T14:47:11;12.60;;;7.90;;
40793;SDS011;26502;51.886;15.604;2024-01-30T14:52:37;14.10;;;9.40;;
40793;SDS011;26502;51.886;15.604;2024-01-30T14:58:03;20.10;;;9.90;;
40793;SDS011;26502;51.886;15.604;2024-01-30T15:03:29;18.50;;;9.90;;
40793;SDS011;26502;51.886;15.604;2024-01-30T15:08:56;16.00;;;9.70;;
40793;SDS011;26502;51.886;15.604;2024-01-30T15:14:22;19.20;;;11.40;;
40793;SDS011;26502;51.886;15.604;2024-01-30T15:19:48;24.50;;;13.80;;
40793;SDS011;26502;51.886;15.604;2024-01-30T15:25:14;20.00;;;14.20;;
40793;SDS011;26502;51.886;15.604;2024-01-30T15:30:40;32.20;;;17.80;;
40793;SDS011;26502;51.886;15.604;2024-01-30T15:36:07;28.00;;;15.90;;
40793;SDS011;26502;51.886;15.604;2024-01-30T15:41:36;42.70;;;26.40;;
40793;SDS011;26502;51.886;15.604;2024-01-30T15:47:02;51.90;;;32.90;;
40793;SDS011;26502;51.886;15.604;2024-01-30T15:52:30;18.10;;;11.50;;
40793;SDS011;26502;51.886;15.604;2024-01-30T15:57:56;19.90;;;12.00;;
40793;SDS011;26502;51.886;15.604;2024-01-30T16:03:23;38.60;;;23.10;;
40793;SDS011;26502;51.886;15.604;2024-01-30T16:08:49;64.40;;;35.00;;
40793;SDS011;26502;51.886;15.604;2024-01-30T16:14:15;31.30;;;19.10;;
40793;SDS011;26502;51.886;15.604;2024-01-30T16:19:41;30.20;;;18.00;;
40793;SDS011;26502;51.886;15.604;2024-01-30T16:25:07;116.20;;;52.00;;
40793;SDS011;26502;51.886;15.604;2024-01-30T16:30:34;27.30;;;14.10;;
40793;SDS011;26502;51.886;15.604;2024-01-30T16:36:00;16.50;;;9.70;;
40793;SDS011;26502;51.886;15.604;2024-01-30T16:41:27;18.10;;;10.80;;
40793;SDS011;26502;51.886;15.604;2024-01-30T16:46:52;13.80;;;8.80;;
40793;SDS011;26502;51.886;15.604;2024-01-30T16:52:18;67.20;;;27.90;;
40793;SDS011;26502;51.886;15.604;2024-01-30T16:57:45;64.70;;;28.80;;
40793;SDS011;26502;51.886;15.604;2024-01-30T17:03:10;48.80;;;25.20;;
40793;SDS011;26502;51.886;15.604;2024-01-30T17:08:36;94.60;;;40.80;;
40793;SDS011;26502;51.886;15.604;2024-01-30T17:14:03;66.50;;;31.60;;
40793;SDS011;26502;51.886;15.604;2024-01-30T17:19:29;55.80;;;29.10;;
40793;SDS011;26502;51.886;15.604;2024-01-30T17:24:55;77.60;;;51.70;;
40793;SDS011;26502;51.886;15.604;2024-01-30T17:30:21;84.10;;;42.00;;
40793;SDS011;26502;51.886;15.604;2024-01-30T17:35:47;51.80;;;26.10;;
40793;SDS011;26502;51.886;15.604;2024-01-30T17:41:13;71.40;;;33.80;;
40793;SDS011;26502;51.886;15.604;2024-01-30T17:46:42;52.10;;;26.20;;
40793;SDS011;26502;51.886;15.604;2024-01-30T17:52:08;40.50;;;21.40;;
40793;SDS011;26502;51.886;15.604;2024-01-30T17:57:34;45.40;;;23.30;;
40793;SDS011;26502;51.886;15.604;2024-01-30T18:03:00;71.80;;;33.20;;
40793;SDS011;26502;51.886;15.604;2024-01-30T18:08:27;68.90;;;31.00;;
40793;SDS011;26502;51.886;15.604;2024-01-30T18:13:53;113.10;;;49.30;;
40793;SDS011;26502;51.886;15.604;2024-01-30T18:19:19;89.20;;;39.90;;
40793;SDS011;26502;51.886;15.604;2024-01-30T18:24:45;114.20;;;46.50;;
40793;SDS011;26502;51.886;15.604;2024-01-30T18:30:12;147.90;;;69.40;;
40793;SDS011;26502;51.886;15.604;2024-01-30T18:35:38;135.90;;;57.00;;
40793;SDS011;26502;51.886;15.604;2024-01-30T18:41:05;175.40;;;93.20;;
40793;SDS011;26502;51.886;15.604;2024-01-30T18:46:31;194.40;;;87.50;;
40793;SDS011;26502;51.886;15.604;2024-01-30T18:51:58;209.00;;;87.00;;
40793;SDS011;26502;51.886;15.604;2024-01-30T18:57:27;138.30;;;67.10;;
40793;SDS011;26502;51.886;15.604;2024-01-30T19:02:53;131.90;;;58.50;;
40793;SDS011;26502;51.886;15.604;2024-01-30T19:08:20;170.60;;;67.70;;
40793;SDS011;26502;51.886;15.604;2024-01-30T19:13:46;114.30;;;49.50;;
40793;SDS011;26502;51.886;15.604;2024-01-30T19:19:12;165.70;;;81.60;;
40793;SDS011;26502;51.886;15.604;2024-01-30T19:24:39;139.40;;;68.80;;
40793;SDS011;26502;51.886;15.604;2024-01-30T19:30:06;99.80;;;55.10;;
40793;SDS011;26502;51.886;15.604;2024-01-30T19:35:33;108.70;;;55.40;;
40793;SDS011;26502;51.886;15.604;2024-01-30T19:40:59;83.40;;;41.10;;
40793;SDS011;26502;51.886;15.604;2024-01-30T19:46:25;70.70;;;36.50;;
40793;SDS011;26502;51.886;15.604;2024-01-30T19:51:52;80.50;;;41.90;;
40793;SDS011;26502;51.886;15.604;2024-01-30T19:57:18;76.80;;;42.10;;
40793;SDS011;26502;51.886;15.604;2024-01-30T20:02:44;85.30;;;47.30;;
40793;SDS011;26502;51.886;15.604;2024-01-30T20:08:11;117.70;;;55.80;;
40793;SDS011;26502;51.886;15.604;2024-01-30T20:13:38;107.70;;;51.80;;
40793;SDS011;26502;51.886;15.604;2024-01-30T20:19:05;91.50;;;47.90;;
40793;SDS011;26502;51.886;15.604;2024-01-30T20:24:31;76.00;;;39.70;;
40793;SDS011;26502;51.886;15.604;2024-01-30T20:29:57;90.20;;;43.80;;
40793;SDS011;26502;51.886;15.604;2024-01-30T20:35:23;68.30;;;34.40;;
40793;SDS011;26502;51.886;15.604;2024-01-30T20:40:51;61.70;;;31.00;;
40793;SDS011;26502;51.886;15.604;2024-01-30T20:46:18;53.40;;;27.50;;
40793;SDS011;26502;51.886;15.604;2024-01-30T20:51:44;48.20;;;28.10;;
40793;SDS011;26502;51.886;15.604;2024-01-30T20:57:10;37.50;;;23.60;;
40793;SDS011;26502;51.886;15.604;2024-01-30T21:02:36;43.80;;;27.80;;
40793;SDS011;26502;51.886;15.604;2024-01-30T21:08:02;44.10;;;26.20;;
40793;SDS011;26502;51.886;15.604;2024-01-30T21:13:29;59.90;;;29.80;;
40793;SDS011;26502;51.886;15.604;2024-01-30T21:18:55;42.80;;;24.10;;
40793;SDS011;26502;51.886;15.604;2024-01-30T21:24:21;39.70;;;23.80;;
40793;SDS011;26502;51.886;15.604;2024-01-30T21:29:47;112.80;;;50.30;;
40793;SDS011;26502;51.886;15.604;2024-01-30T21:35:13;61.60;;;29.40;;
40793;SDS011;26502;51.886;15.604;2024-01-30T21:40:39;66.50;;;32.10;;
40793;SDS011;26502;51.886;15.604;2024-01-30T21:46:05;62.30;;;30.50;;
40793;SDS011;26502;51.886;15.604;2024-01-30T21:51:31;63.60;;;31.50;;
40793;SDS011;26502;51.886;15.604;2024-01-30T21:56:57;71.00;;;33.40;;
40793;SDS011;26502;51.886;15.604;2024-01-30T22:02:22;49.80;;;29.30;;
40793;SDS011;26502;51.886;15.604;2024-01-30T22:07:48;39.30;;;22.50;;
40793;SDS011;26502;51.886;15.604;2024-01-30T22:13:15;38.80;;;22.10;;
40793;SDS011;26502;51.886;15.604;2024-01-30T22:18:42;35.90;;;22.20;;
40793;SDS011;26502;51.886;15.604;2024-01-30T22:24:09;37.20;;;24.60;;
40793;SDS011;26502;51.886;15.604;2024-01-30T22:29:35;38.80;;;26.00;;
40793;SDS011;26502;51.886;15.604;2024-01-30T22:35:04;34.90;;;23.40;;
40793;SDS011;26502;51.886;15.604;2024-01-30T22:40:32;42.30;;;25.60;;
40793;SDS011;26502;51.886;15.604;2024-01-30T22:46:00;35.20;;;23.50;;
40793;SDS011;26502;51.886;15.604;2024-01-30T22:51:27;36.10;;;21.80;;
40793;SDS011;26502;51.886;15.604;2024-01-30T22:56:53;34.40;;;22.20;;
40793;SDS011;26502;51.886;15.604;2024-01-30T23:02:20;35.20;;;21.60;;
40793;SDS011;26502;51.886;15.604;2024-01-30T23:07:46;35.10;;;22.20;;
40793;SDS011;26502;51.886;15.604;2024-01-30T23:13:13;29.30;;;20.30;;
40793;SDS011;26502;51.886;15.604;2024-01-30T23:18:40;30.60;;;19.50;;
40793;SDS011;26502;51.886;15.604;2024-01-30T23:24:06;29.60;;;19.20;;
40793;SDS011;26502;51.886;15.604;2024-01-30T23:29:32;31.20;;;19.50;;
40793;SDS011;26502;51.886;15.604;2024-01-30T23:35:00;33.70;;;20.20;;
40793;SDS011;26502;51.886;15.604;2024-01-30T23:40:27;34.40;;;21.40;;
40793;SDS011;26502;51.886;15.604;2024-01-30T23:45:53;28.50;;;20.00;;
40793;SDS011;26502;51.886;15.604;2024-01-30T23:51:19;30.70;;;19.30;;
40793;SDS011;26502;51.886;15.604;2024-01-30T23:56:45;33.90;;;21.40;;
